createdAt,value
2019-03-31T00:01:23.855Z,95924.05
2019-03-31T00:04:12.447Z,95918.00
2019-03-31T00:07:01.857Z,95916.29
2019-03-31T00:09:51.021Z,95910.94
2019-03-31T00:12:40.176Z,95917.19
2019-03-31T00:15:29.202Z,95914.03
2019-03-31T00:18:18.947Z,95912.97
2019-03-31T00:21:08.799Z,95915.98
2019-03-31T00:23:57.563Z,95916.75
2019-03-31T00:26:46.790Z,95914.91
2019-03-31T00:29:36.333Z,95909.60
2019-03-31T00:32:25.258Z,95908.26
2019-03-31T00:35:14.492Z,95911.69
2019-03-31T00:38:04.112Z,95909.59
2019-03-31T00:40:53.039Z,95910.59
2019-03-31T00:43:42.543Z,95911.09
2019-03-31T00:46:32.089Z,95910.67
2019-03-31T00:49:20.887Z,95906.47
2019-03-31T00:52:10.167Z,95910.09
2019-03-31T00:54:59.032Z,95909.33
2019-03-31T00:57:47.750Z,95905.92
2019-03-31T01:00:55.311Z,95907.28
2019-03-31T01:03:43.987Z,95905.14
2019-03-31T01:06:32.731Z,95908.69
2019-03-31T01:09:25.358Z,95914.30
2019-03-31T01:12:14.695Z,95901.73
2019-03-31T01:15:06.236Z,95903.52
2019-03-31T01:17:55.171Z,95908.36
2019-03-31T01:20:45.431Z,95905.38
2019-03-31T01:23:34.527Z,95909.69
2019-03-31T01:26:23.971Z,95907.66
2019-03-31T01:29:15.739Z,95912.86
2019-03-31T01:32:05.278Z,95913.33
2019-03-31T01:34:54.624Z,95907.23
2019-03-31T01:37:44.385Z,95907.15
2019-03-31T01:40:33.727Z,95905.27
2019-03-31T01:43:23.123Z,95900.83
2019-03-31T01:46:15.114Z,95902.97
2019-03-31T01:49:04.225Z,95899.92
2019-03-31T01:51:53.264Z,95891.64
2019-03-31T01:54:42.135Z,95900.93
2019-03-31T01:57:31.613Z,95892.55
2019-03-31T02:00:45.598Z,95897.38
2019-03-31T02:03:35.269Z,95901.34
2019-03-31T02:06:24.552Z,95897.91
2019-03-31T02:09:13.752Z,95902.17
2019-03-31T02:12:03.045Z,95896.95
2019-03-31T02:14:52.031Z,95895.63
2019-03-31T02:17:41.616Z,95891.31
2019-03-31T02:20:30.778Z,95891.34
2019-03-31T02:23:19.463Z,95888.32
2019-03-31T02:26:08.920Z,95881.81
2019-03-31T02:28:58.725Z,95883.78
2019-03-31T02:31:48.057Z,95885.57
2019-03-31T02:34:37.178Z,95885.52
2019-03-31T02:37:25.794Z,95886.45
2019-03-31T02:40:15.016Z,95884.73
2019-03-31T02:43:04.149Z,95875.28
2019-03-31T02:45:53.553Z,95883.13
2019-03-31T02:48:43.101Z,95874.91
2019-03-31T02:51:32.492Z,95872.31
2019-03-31T02:54:21.178Z,95869.27
2019-03-31T02:57:11.095Z,95867.50
2019-03-31T03:00:02.478Z,95865.39
2019-03-31T03:02:53.613Z,95867.69
2019-03-31T03:05:44.776Z,95872.58
2019-03-31T03:08:36.668Z,95876.05
2019-03-31T03:11:27.650Z,95870.03
2019-03-31T03:14:16.511Z,95868.70
2019-03-31T03:17:05.793Z,95868.69
2019-03-31T03:19:54.412Z,95871.31
2019-03-31T03:22:43.114Z,95864.97
2019-03-31T03:25:32.238Z,95874.06
2019-03-31T03:28:21.621Z,95873.17
2019-03-31T03:31:15.741Z,95870.10
2019-03-31T03:34:02.009Z,95873.08
2019-03-31T03:36:50.988Z,95873.91
2019-03-31T03:39:40.597Z,95867.86
2019-03-31T03:42:30.031Z,95862.67
2019-03-31T03:45:19.233Z,95862.67
2019-03-31T03:48:08.734Z,95864.05
2019-03-31T03:50:57.741Z,95866.70
2019-03-31T03:53:47.276Z,95866.29
2019-03-31T03:56:36.176Z,95862.80
2019-03-31T03:59:25.648Z,95865.82
2019-03-31T04:02:14.836Z,95863.19
2019-03-31T04:05:03.641Z,95862.74
2019-03-31T04:07:52.741Z,95856.73
2019-03-31T04:11:26.321Z,95858.89
2019-03-31T04:14:15.138Z,95868.51
2019-03-31T04:17:04.017Z,95861.22
2019-03-31T04:19:52.904Z,95868.14
2019-03-31T04:22:42.108Z,95869.45
2019-03-31T04:25:31.479Z,95869.87
2019-03-31T04:28:20.875Z,95869.02
2019-03-31T04:31:10.131Z,95875.02
2019-03-31T04:34:00.178Z,95868.16
2019-03-31T04:36:48.987Z,95872.48
2019-03-31T04:39:38.138Z,95877.22
2019-03-31T04:42:27.432Z,95869.43
2019-03-31T04:45:17.090Z,95863.81
2019-03-31T04:48:06.232Z,95863.79
2019-03-31T04:50:55.342Z,95865.08
2019-03-31T04:53:44.140Z,95863.80
2019-03-31T04:56:33.541Z,95862.92
2019-03-31T04:59:23.066Z,95865.09
2019-03-31T05:02:12.673Z,95871.97
2019-03-31T05:05:02.391Z,95871.98
2019-03-31T05:07:51.346Z,95871.14
2019-03-31T05:10:40.553Z,95871.14
2019-03-31T05:13:30.004Z,95872.86
2019-03-31T05:16:19.232Z,95875.47
2019-03-31T05:19:08.923Z,95876.35
2019-03-31T05:21:58.232Z,95876.36
2019-03-31T05:24:47.746Z,95884.97
2019-03-31T05:27:36.912Z,95889.30
2019-03-31T05:30:26.539Z,95884.12
2019-03-31T05:33:15.230Z,95875.93
2019-03-31T05:36:04.130Z,95883.73
2019-03-31T05:38:53.325Z,95888.02
2019-03-31T05:41:42.738Z,95881.11
2019-03-31T05:44:31.609Z,95886.25
2019-03-31T05:47:20.837Z,95884.96
2019-03-31T05:50:09.642Z,95895.73
2019-03-31T05:52:59.364Z,95891.39
2019-03-31T05:55:48.264Z,95885.31
2019-03-31T05:58:37.344Z,95890.02
2019-03-31T06:01:26.114Z,95883.94
2019-03-31T06:04:14.645Z,95882.20
2019-03-31T06:07:03.840Z,95892.99
2019-03-31T06:09:53.131Z,95891.65
2019-03-31T06:12:42.264Z,95891.19
2019-03-31T06:15:31.320Z,95890.75
2019-03-31T06:18:20.523Z,95895.05
2019-03-31T06:21:09.694Z,95890.61
2019-03-31T06:23:59.528Z,95885.36
2019-03-31T06:26:49.327Z,95889.63
2019-03-31T06:29:38.476Z,95891.30
2019-03-31T06:32:30.551Z,95894.66
2019-03-31T06:35:19.860Z,95899.33
2019-03-31T06:38:08.896Z,95891.42
2019-03-31T06:40:58.904Z,95896.92
2019-03-31T06:43:48.708Z,95897.29
2019-03-31T06:46:37.780Z,95901.45
2019-03-31T06:49:27.285Z,95899.21
2019-03-31T06:52:17.101Z,95901.25
2019-03-31T06:55:08.077Z,95900.27
2019-03-31T06:57:56.808Z,95901.42
2019-03-31T07:00:45.925Z,95896.54
2019-03-31T07:03:35.274Z,95896.42
2019-03-31T07:06:24.480Z,95904.52
2019-03-31T07:09:13.898Z,95896.98
2019-03-31T07:12:02.731Z,95896.85
2019-03-31T07:14:52.036Z,95898.44
2019-03-31T07:17:41.179Z,95900.45
2019-03-31T07:20:29.895Z,95896.41
2019-03-31T07:23:19.420Z,95903.75
2019-03-31T07:26:08.639Z,95903.09
2019-03-31T07:28:58.202Z,95898.58
2019-03-31T07:31:46.796Z,95899.36
2019-03-31T07:34:35.505Z,95900.05
2019-03-31T07:37:24.487Z,95905.81
2019-03-31T07:40:14.732Z,95905.11
2019-03-31T07:43:04.039Z,95907.49
2019-03-31T07:45:55.824Z,95900.73
2019-03-31T07:48:43.382Z,95902.65
2019-03-31T07:51:32.793Z,95904.60
2019-03-31T07:54:22.134Z,95901.38
2019-03-31T07:57:10.876Z,95900.30
2019-03-31T08:00:00.481Z,95901.30
2019-03-31T08:02:50.019Z,95898.42
2019-03-31T08:05:38.929Z,95896.84
2019-03-31T08:08:28.326Z,95899.09
2019-03-31T08:11:17.455Z,95896.69
2019-03-31T08:14:06.740Z,95890.78
2019-03-31T08:16:56.164Z,95891.81
2019-03-31T08:19:45.837Z,95889.39
2019-03-31T08:22:35.233Z,95891.23
2019-03-31T08:25:24.324Z,95890.08
2019-03-31T08:28:13.185Z,95887.13
2019-03-31T08:31:02.227Z,95891.06
2019-03-31T08:33:51.585Z,95885.50
2019-03-31T08:36:40.651Z,95890.89
2019-03-31T08:39:30.580Z,95893.41
2019-03-31T08:42:20.059Z,95887.30
2019-03-31T08:45:09.317Z,95883.78
2019-03-31T08:47:58.519Z,95886.28
2019-03-31T08:50:48.085Z,95882.30
2019-03-31T08:53:37.824Z,95888.06
2019-03-31T08:56:27.802Z,95882.61
2019-03-31T08:59:16.877Z,95880.78
2019-03-31T09:02:26.401Z,95879.36
2019-03-31T09:05:15.796Z,95879.80
2019-03-31T09:08:05.058Z,95873.77
2019-03-31T09:10:54.269Z,95868.39
2019-03-31T09:13:43.800Z,95872.27
2019-03-31T09:16:33.125Z,95869.56
2019-03-31T09:19:22.859Z,95861.25
2019-03-31T09:22:11.554Z,95862.72
2019-03-31T09:25:00.397Z,95862.54
2019-03-31T09:27:49.566Z,95853.83
2019-03-31T09:30:38.715Z,95861.47
2019-03-31T09:33:29.903Z,95855.00
2019-03-31T09:36:19.343Z,95861.82
2019-03-31T09:39:08.681Z,95855.79
2019-03-31T09:41:57.409Z,95856.59
2019-03-31T09:44:46.896Z,95861.09
2019-03-31T09:47:39.928Z,95858.10
2019-03-31T09:50:28.991Z,95851.91
2019-03-31T09:53:18.032Z,95856.47
2019-03-31T09:56:07.653Z,95850.02
2019-03-31T09:58:57.374Z,95850.54
2019-03-31T10:01:46.797Z,95844.57
2019-03-31T10:04:36.557Z,95841.27
2019-03-31T10:07:26.066Z,95837.73
2019-03-31T10:10:31.372Z,95837.73
2019-03-31T10:13:20.399Z,95838.92
2019-03-31T10:16:10.089Z,95826.44
2019-03-31T10:18:59.554Z,95828.45
2019-03-31T10:21:48.924Z,95821.33
2019-03-31T10:24:38.058Z,95830.16
2019-03-31T10:27:27.327Z,95814.77
2019-03-31T10:30:19.903Z,95814.77
2019-03-31T10:33:08.967Z,95803.19
2019-03-31T10:35:57.536Z,95803.19
2019-03-31T10:38:46.590Z,95808.23
2019-03-31T10:41:35.868Z,95798.48
2019-03-31T10:44:24.873Z,95798.48
2019-03-31T10:47:13.995Z,95782.17
2019-03-31T10:50:03.708Z,95782.17
2019-03-31T10:52:52.957Z,95788.84
2019-03-31T10:55:41.949Z,95782.91
2019-03-31T10:58:33.241Z,95784.52
2019-03-31T11:01:22.027Z,95790.19
2019-03-31T11:04:11.558Z,95791.11
2019-03-31T11:07:03.455Z,95792.05
2019-03-31T11:09:51.491Z,95789.23
2019-03-31T11:12:40.968Z,95782.09
2019-03-31T11:15:30.484Z,95788.02
2019-03-31T11:18:19.737Z,95777.95
2019-03-31T11:21:15.290Z,95776.48
2019-03-31T11:24:04.734Z,95775.99
2019-03-31T11:26:53.629Z,95778.09
2019-03-31T11:29:42.942Z,95771.63
2019-03-31T11:32:32.328Z,95771.66
2019-03-31T11:35:21.313Z,95770.28
2019-03-31T11:38:10.559Z,95771.32
2019-03-31T11:40:59.972Z,95762.28
2019-03-31T11:43:49.127Z,95760.47
2019-03-31T11:46:39.920Z,95761.27
2019-03-31T11:49:28.658Z,95762.20
2019-03-31T11:52:17.965Z,95755.37
2019-03-31T11:55:09.033Z,95753.95
2019-03-31T11:57:58.807Z,95743.47
2019-03-31T12:00:54.218Z,95745.67
2019-03-31T12:03:43.484Z,95747.58
2019-03-31T12:06:32.206Z,95749.16
2019-03-31T12:09:21.660Z,95760.06
2019-03-31T12:12:11.089Z,95751.28
2019-03-31T12:15:00.987Z,95753.09
2019-03-31T12:17:50.958Z,95747.78
2019-03-31T12:20:40.367Z,95741.95
2019-03-31T12:23:29.472Z,95740.63
2019-03-31T12:26:18.583Z,95742.45
2019-03-31T12:29:07.751Z,95734.59
2019-03-31T12:31:56.493Z,95738.29
2019-03-31T12:34:45.417Z,95734.50
2019-03-31T12:37:42.179Z,95729.50
2019-03-31T12:40:33.766Z,95723.91
2019-03-31T12:43:23.500Z,95714.23
2019-03-31T12:46:12.525Z,95715.54
2019-03-31T12:49:01.853Z,95705.98
2019-03-31T12:51:50.940Z,95701.74
2019-03-31T12:54:39.499Z,95702.00
2019-03-31T12:57:28.340Z,95697.45
2019-03-31T13:00:18.419Z,95694.77
2019-03-31T13:03:08.012Z,95687.41
2019-03-31T13:05:57.186Z,95690.15
2019-03-31T13:08:46.709Z,95688.38
2019-03-31T13:11:35.917Z,95696.74
2019-03-31T13:14:24.834Z,95694.31
2019-03-31T13:17:13.650Z,95685.73
2019-03-31T13:20:03.068Z,95683.24
2019-03-31T13:22:52.449Z,95680.58
2019-03-31T13:25:41.829Z,95680.16
2019-03-31T13:28:31.042Z,95674.67
2019-03-31T13:31:20.498Z,95669.33
2019-03-31T13:34:09.705Z,95674.55
2019-03-31T13:36:58.793Z,95669.50
2019-03-31T13:39:47.656Z,95662.11
2019-03-31T13:42:37.501Z,95655.16
2019-03-31T13:45:26.826Z,95658.93
2019-03-31T13:48:16.479Z,95650.80
2019-03-31T13:51:05.252Z,95652.29
2019-03-31T13:53:54.996Z,95652.66
2019-03-31T13:56:48.468Z,95648.72
2019-03-31T13:59:35.439Z,95649.31
2019-03-31T14:02:25.016Z,95639.06
2019-03-31T14:05:14.593Z,95640.75
2019-03-31T14:08:03.691Z,95635.88
2019-03-31T14:10:53.149Z,95628.76
2019-03-31T14:13:42.942Z,95635.48
2019-03-31T14:16:32.923Z,95629.55
2019-03-31T14:19:21.963Z,95627.76
2019-03-31T14:22:10.857Z,95624.61
2019-03-31T14:25:00.487Z,95628.88
2019-03-31T14:27:49.348Z,95626.12
2019-03-31T14:30:38.485Z,95619.66
2019-03-31T14:33:31.256Z,95623.23
2019-03-31T14:36:20.411Z,95618.17
2019-03-31T14:39:10.334Z,95616.27
2019-03-31T14:42:00.922Z,95610.97
2019-03-31T14:44:50.235Z,95613.98
2019-03-31T14:47:39.184Z,95613.83
2019-03-31T14:50:33.803Z,95603.70
2019-03-31T14:53:22.560Z,95600.80
2019-03-31T14:56:12.460Z,95612.97
2019-03-31T14:59:01.714Z,95608.15
2019-03-31T15:01:51.961Z,95601.22
2019-03-31T15:04:41.688Z,95608.41
2019-03-31T15:07:30.899Z,95605.34
2019-03-31T15:10:20.318Z,95603.05
2019-03-31T15:13:09.612Z,95595.34
2019-03-31T15:15:58.935Z,95599.09
2019-03-31T15:18:48.114Z,95601.44
2019-03-31T15:21:43.928Z,95597.59
2019-03-31T15:24:31.383Z,95593.50
2019-03-31T15:27:20.676Z,95598.77
2019-03-31T15:30:10.062Z,95601.63
2019-03-31T15:32:59.021Z,95597.00
2019-03-31T15:35:48.282Z,95599.47
2019-03-31T15:38:37.222Z,95601.04
2019-03-31T15:41:26.607Z,95602.00
2019-03-31T15:44:15.895Z,95605.20
2019-03-31T15:47:04.859Z,95600.30
2019-03-31T15:49:54.572Z,95601.08
2019-03-31T15:52:43.474Z,95601.48
2019-03-31T15:55:32.850Z,95603.14
2019-03-31T15:58:22.373Z,95604.63
2019-03-31T16:01:11.851Z,95600.66
2019-03-31T16:04:00.825Z,95606.55
2019-03-31T16:06:54.107Z,95601.36
2019-03-31T16:09:43.370Z,95601.70
2019-03-31T16:12:31.694Z,95598.62
2019-03-31T16:15:20.544Z,95597.15
2019-03-31T16:18:11.535Z,95596.51
2019-03-31T16:20:59.969Z,95599.23
2019-03-31T16:23:48.443Z,95603.67
2019-03-31T16:26:37.153Z,95604.52
2019-03-31T16:29:26.033Z,95602.20
2019-03-31T16:32:14.245Z,95611.02
2019-03-31T16:35:03.515Z,95604.88
2019-03-31T16:37:51.711Z,95607.95
2019-03-31T16:40:40.584Z,95600.71
2019-03-31T16:43:30.104Z,95606.76
2019-03-31T16:46:18.588Z,95602.00
2019-03-31T16:49:07.419Z,95599.12
2019-03-31T16:51:56.683Z,95600.22
2019-03-31T16:54:45.693Z,95601.83
2019-03-31T16:57:34.810Z,95598.48
2019-03-31T17:00:23.372Z,95602.59
2019-03-31T17:03:12.765Z,95602.98
2019-03-31T17:06:01.989Z,95602.24
2019-03-31T17:08:50.983Z,95611.44
2019-03-31T17:11:40.252Z,95609.77
2019-03-31T17:14:28.924Z,95612.91
2019-03-31T17:17:17.429Z,95603.69
2019-03-31T17:20:07.154Z,95612.84
2019-03-31T17:22:55.972Z,95611.52
2019-03-31T17:25:44.571Z,95612.45
2019-03-31T17:28:33.323Z,95606.68
2019-03-31T17:31:22.317Z,95613.09
2019-03-31T17:34:10.899Z,95615.62
2019-03-31T17:36:59.568Z,95619.76
2019-03-31T17:40:05.123Z,95624.86
2019-03-31T17:42:45.047Z,95621.64
2019-03-31T17:45:37.573Z,95623.42
2019-03-31T17:48:26.285Z,95629.33
2019-03-31T17:51:15.251Z,95630.86
2019-03-31T17:54:06.380Z,95619.90
2019-03-31T17:56:54.670Z,95623.47
2019-03-31T17:59:43.640Z,95622.14
2019-03-31T18:02:32.998Z,95623.26
2019-03-31T18:05:21.620Z,95625.73
2019-03-31T18:08:10.361Z,95623.19
2019-03-31T18:10:59.288Z,95622.91
2019-03-31T18:13:48.428Z,95627.08
2019-03-31T18:18:34.427Z,95629.05
2019-03-31T18:21:27.076Z,95638.56
2019-03-31T18:24:14.565Z,95640.23
2019-03-31T18:27:03.375Z,95641.64
2019-03-31T18:29:52.147Z,95650.69
2019-03-31T18:32:41.406Z,95653.81
2019-03-31T18:35:31.831Z,95653.12
2019-03-31T18:38:20.621Z,95658.28
2019-03-31T18:41:09.618Z,95658.95
2019-03-31T18:43:58.102Z,95659.51
2019-03-31T18:46:46.805Z,95661.81
2019-03-31T18:49:36.387Z,95663.67
2019-03-31T18:52:24.678Z,95659.83
2019-03-31T18:55:22.404Z,95659.83
2019-03-31T18:58:18.253Z,95679.94
2019-03-31T19:01:30.449Z,95663.69
2019-03-31T19:04:39.721Z,95666.70
2019-03-31T19:08:00.072Z,95670.39
2019-03-31T19:11:10.749Z,95671.83
2019-03-31T19:14:33.148Z,95677.30
2019-03-31T19:17:39.903Z,95677.30
2019-03-31T19:20:50.592Z,95680.14
2019-03-31T19:24:00.962Z,95680.14
2019-03-31T19:27:10.542Z,95679.36
2019-03-31T19:30:17.191Z,95674.40
2019-03-31T19:33:25.015Z,95679.36
2019-03-31T19:36:35.547Z,95679.36
2019-03-31T19:39:43.561Z,95683.81
2019-03-31T19:42:57.344Z,95685.48
2019-03-31T19:46:05.684Z,95684.12
2019-03-31T19:49:16.446Z,95683.88
2019-03-31T19:52:22.734Z,95676.32
2019-03-31T19:55:30.753Z,95684.31
2019-03-31T19:58:37.843Z,95684.97
2019-03-31T20:01:51.290Z,95682.83
2019-03-31T20:05:01.309Z,95685.48
2019-03-31T20:08:09.502Z,95685.09
2019-03-31T20:11:09.285Z,95681.38
2019-03-31T20:14:26.962Z,95686.44
2019-03-31T20:17:23.205Z,95682.50
2019-03-31T20:20:21.541Z,95688.43
2019-03-31T20:23:26.448Z,95694.45
2019-03-31T20:26:33.392Z,95693.40
2019-03-31T20:29:40.610Z,95700.05
2019-03-31T20:32:54.387Z,95697.53
2019-03-31T20:36:02.850Z,95706.57
2019-03-31T20:39:29.080Z,95695.73
2019-03-31T20:42:34.107Z,95699.76
2019-03-31T20:45:23.018Z,95695.66
2019-03-31T20:48:11.272Z,95695.44
2019-03-31T20:51:00.231Z,95696.70
2019-03-31T20:53:49.388Z,95698.52
2019-03-31T20:56:37.841Z,95703.43
2019-03-31T20:59:26.643Z,95699.52
2019-03-31T21:02:15.700Z,95706.12
2019-03-31T21:05:04.344Z,95714.17
2019-03-31T21:07:53.254Z,95709.91
2019-03-31T21:10:42.066Z,95713.25
2019-03-31T21:13:30.437Z,95721.39
2019-03-31T21:16:19.345Z,95732.92
2019-03-31T21:19:07.942Z,95732.34
2019-03-31T21:21:56.457Z,95730.23
2019-03-31T21:24:45.093Z,95732.58
2019-03-31T21:27:33.515Z,95736.49
2019-03-31T21:30:21.810Z,95731.05
2019-03-31T21:33:11.013Z,95730.84
2019-03-31T21:35:59.874Z,95733.32
2019-03-31T21:38:48.449Z,95735.33
2019-03-31T21:41:37.214Z,95735.73
2019-03-31T21:44:26.255Z,95739.81
2019-03-31T21:47:14.419Z,95737.50
2019-03-31T21:50:04.210Z,95739.45
2019-03-31T21:52:53.414Z,95740.70
2019-03-31T21:55:42.289Z,95742.39
2019-03-31T21:58:31.070Z,95744.59
2019-03-31T22:01:19.464Z,95748.98
2019-03-31T22:04:08.405Z,95746.81
2019-03-31T22:06:57.524Z,95747.70
2019-03-31T22:09:45.679Z,95743.72
2019-03-31T22:12:34.423Z,95748.42
2019-03-31T22:15:23.142Z,95741.57
2019-03-31T22:18:11.908Z,95740.70
2019-03-31T22:21:01.210Z,95742.47
2019-03-31T22:23:57.799Z,95743.44
2019-03-31T22:26:39.837Z,95743.44
2019-03-31T22:29:28.842Z,95746.81
2019-03-31T22:32:17.473Z,95737.67
2019-03-31T22:35:06.430Z,95739.80
2019-03-31T22:37:55.107Z,95739.06
2019-03-31T22:40:43.257Z,95729.19
2019-03-31T22:43:32.353Z,95737.48
2019-03-31T22:46:21.531Z,95739.27
2019-03-31T22:49:10.347Z,95732.34
2019-03-31T22:51:58.504Z,95739.50
2019-03-31T22:54:46.941Z,95737.41
2019-03-31T22:57:35.432Z,95735.68
2019-03-31T23:00:26.764Z,95739.74
2019-03-31T23:03:15.065Z,95737.36
2019-03-31T23:06:03.817Z,95741.27
2019-03-31T23:08:52.498Z,95741.19
2019-03-31T23:11:41.739Z,95738.94
2019-03-31T23:14:30.955Z,95744.70
2019-03-31T23:17:19.552Z,95738.32
2019-03-31T23:20:08.667Z,95741.00
2019-03-31T23:22:57.269Z,95740.59
2019-03-31T23:25:45.633Z,95741.41
2019-03-31T23:28:36.271Z,95739.36
2019-03-31T23:31:24.913Z,95737.16
2019-03-31T23:34:13.973Z,95736.77
2019-03-31T23:37:02.149Z,95738.05
2019-03-31T23:39:50.287Z,95729.70
2019-03-31T23:42:38.538Z,95729.62
2019-03-31T23:45:27.100Z,95730.50
2019-03-31T23:48:16.119Z,95731.83
2019-03-31T23:51:04.439Z,95723.86
2019-03-31T23:53:52.636Z,95728.03
2019-03-31T23:56:41.894Z,95725.01
2019-03-31T23:59:31.094Z,95729.00
